Guatemala, Guatemala

11:51 PM CST on September 03, 2015 (GMT -0600)
La Aurora International | | Change Station
CLOSE
Current Station
Airport
Location: Guatemala,
Elevation: 4885 ft
Nearby Weather Stations

Elev 4885 ft 14.58 °N, 90.53 °W | Updated 51 minutes ago

Mostly Cloudy
Mostly Cloudy
64 °F
Feels Like 64 °F
N
2
Wind Variable Wind from Variable

Today
High -- | Low -- °F
--% Chance of Precip.
Yesterday
High -- | Low -- °F
Precip. -- in
5:50 AM 6:12 PM
Waning Gibbous, 63% visible
Pressure 30.27 in
Visibility 6.2 miles
Clouds Few 1600 ft
Mostly Cloudy 8000 ft
Dew Point 61 °F
Humidity 88%
Rainfall 0.00 in
Snow Depth Not available.
UV 0 out of 12
Pollen Not available.
Air Quality Not available.
Flu Activity Not available.
METAR MGGT 040500Z VRB02KT 9999 FEW016 BKN080 18/16 Q1025 A3027
Pressure 30.27 in
Visibility 6.2 miles
Clouds Few 1600 ft
Mostly Cloudy 8000 ft
Dew Point 61 °F
Humidity 88%
Rainfall 0.00 in
Snow Depth Not available.
UV 0 out of 12
Pollen Not available.
Air Quality Not available.
Flu Activity Not available.
METAR MGGT 040500Z VRB02KT 9999 FEW016 BKN080 18/16 Q1025 A3027

10-Day Weather Forecast

×

Almanac

Astronomy

Sep. 03, 2015 Rise Set
Actual Time
Civil Twilight
Nautical Twilight
Astronomical Twilight
Moon
Length of Visible Light
Length of Day
Tomorrow will be .
, % of the Moon is Illuminated

Today's Extremes

Country Highs Country Lows

Community

WunderPhotos

Upload Photos

1,852,129 photos uploaded!

WunderBlogs® & News

Nearby

Air Quality

  Air Quality AQ Index Pollutant
Not available.

Snow Depth

Station Depth Elevation

Earthquake Activity

City Distance Mag. Time & Date
Minimum magnitude displayed is 2.5.

Coastal Water Temperatures

Place Temperature

Stations

Nearby Weather Stations

Station Location Temp. Windchill Dew Point Humidity Wind Precip. Elev Updated Type